Time;durP1;ratioP1;P1;durP2;ratioP2;P2;SDS_P1;SDS_P2;PMS_P1;PMS_P2;Temp;Humidity;BMP_temperature;BMP_pressure;BME280_temperature;BME280_humidity;BME280_pressure;Samples;Min_cycle;Max_cycle;Signal;HPM_P1;HPM_P2
2023/08/27 00:00:50;;;;;;;2.30;1.23;;;23.20;57.00;;;;;;5032897;28;19928;-71
2023/08/27 00:03:16;;;;;;;2.42;1.27;;;23.20;57.00;;;;;;5032424;28;20040;-71
2023/08/27 00:05:42;;;;;;;;;;;23.20;57.10;;;;;;5031515;28;20478;-71
2023/08/27 00:08:10;;;;;;;1.75;1.17;;;23.20;56.80;;;;;;5032725;28;19939;-71
2023/08/27 00:10:36;;;;;;;6.28;1.48;;;23.10;57.20;;;;;;5031049;28;20065;-71
2023/08/27 00:13:02;;;;;;;2.70;1.67;;;23.20;57.60;;;;;;5032291;28;20412;-71
2023/08/27 00:15:28;;;;;;;1.58;0.95;;;23.10;57.30;;;;;;5033148;28;20037;-72
2023/08/27 00:17:54;;;;;;;;;;;23.20;57.90;;;;;;5032765;28;20037;-71
2023/08/27 00:20:20;;;;;;;1.20;0.93;;;23.10;57.60;;;;;;5032434;28;19964;-71
2023/08/27 00:22:46;;;;;;;1.30;0.95;;;23.10;57.90;;;;;;5032205;28;20049;-71
2023/08/27 00:25:12;;;;;;;2.80;1.17;;;23.10;58.00;;;;;;5032915;28;20040;-71
2023/08/27 00:27:39;;;;;;;0.93;0.82;;;23.10;58.20;;;;;;5031822;28;20033;-71
2023/08/27 00:30:05;;;;;;;2.50;1.65;;;23.10;58.20;;;;;;5031339;28;20045;-71
2023/08/27 00:32:33;;;;;;;5.30;2.15;;;23.10;58.10;;;;;;5032790;28;20482;-71
2023/08/27 00:35:00;;;;;;;2.35;1.67;;;23.10;58.20;;;;;;5015081;28;20091;-71
2023/08/27 00:37:26;;;;;;;2.95;1.80;;;23.10;58.40;;;;;;5031256;28;20061;-71
2023/08/27 00:39:53;;;;;;;2.13;1.45;;;23.10;58.00;;;;;;5033098;28;20121;-71
2023/08/27 00:42:19;;;;;;;2.30;1.08;;;23.10;58.80;;;;;;5030563;28;20049;-71
2023/08/27 00:44:45;;;;;;;3.33;1.98;;;23.00;58.80;;;;;;5031641;28;20041;-71
2023/08/27 00:47:11;;;;;;;;;;;23.00;59.00;;;;;;5031679;28;20030;-71
2023/08/27 00:49:39;;;;;;;1.85;1.08;;;23.00;58.70;;;;;;5031328;28;19972;-71
2023/08/27 00:52:08;;;;;;;1.45;0.80;;;22.90;58.90;;;;;;5030564;28;20099;-71
2023/08/27 00:54:35;;;;;;;3.65;1.90;;;22.90;59.00;;;;;;5031466;28;20041;-71
2023/08/27 00:57:05;;;;;;;2.92;1.75;;;22.90;59.00;;;;;;5031017;28;20057;-71
2023/08/27 00:59:32;;;;;;;3.50;2.00;;;22.90;58.70;;;;;;5031552;28;20103;-71
2023/08/27 01:01:58;;;;;;;2.60;1.83;;;22.90;59.10;;;;;;5030429;28;20497;-71
2023/08/27 01:04:24;;;;;;;3.33;1.77;;;22.80;58.50;;;;;;5032724;28;20037;-71
2023/08/27 01:06:50;;;;;;;;;;;22.80;59.30;;;;;;5032483;28;20064;-71
2023/08/27 01:10:13;;;;;;;2.22;0.95;;;22.80;59.20;;;;;;5032281;28;19921;-71
2023/08/27 01:13:02;;;;;;;2.70;1.95;;;22.70;59.30;;;;;;5030498;28;20509;-71
2023/08/27 01:15:30;;;;;;;3.03;1.63;;;22.60;59.30;;;;;;5032099;28;20045;-71
2023/08/27 01:17:59;;;;;;;1.30;1.00;;;22.60;59.30;;;;;;5030978;28;20041;-71
2023/08/27 01:20:27;;;;;;;2.80;1.38;;;22.50;59.20;;;;;;5031345;28;20041;-71
2023/08/27 01:22:53;;;;;;;2.97;1.10;;;22.50;59.40;;;;;;5032207;28;20022;-71
2023/08/27 01:25:27;;;;;;;3.08;1.35;;;22.50;59.40;;;;;;5031798;28;20041;-71
2023/08/27 01:28:17;;;;;;;2.95;1.73;;;22.50;59.40;;;;;;5030918;28;20034;-71
2023/08/27 01:31:21;;;;;;;2.97;1.58;;;22.50;59.60;;;;;;5029918;28;20041;-71
2023/08/27 01:33:50;;;;;;;3.30;1.52;;;22.50;59.50;;;;;;5030923;28;20125;-71
2023/08/27 01:36:19;;;;;;;3.80;2.17;;;22.40;59.50;;;;;;5030287;28;20490;-71
2023/08/27 01:38:45;;;;;;;2.75;1.30;;;22.30;59.60;;;;;;5030809;28;20025;-71
2023/08/27 01:41:11;;;;;;;;;;;22.20;59.60;;;;;;5030049;28;20041;-71
2023/08/27 01:43:37;;;;;;;1.98;1.38;;;22.10;59.70;;;;;;5031923;28;19927;-71
2023/08/27 01:46:03;;;;;;;;;;;22.10;60.00;;;;;;5030851;28;20099;-71
2023/08/27 01:48:29;;;;;;;4.23;2.57;;;22.10;59.80;;;;;;5030646;28;19948;-71
2023/08/27 01:50:55;;;;;;;3.60;1.77;;;22.10;60.10;;;;;;5030801;28;20459;-71
2023/08/27 01:53:21;;;;;;;;;;;22.00;60.60;;;;;;5032271;28;20095;-71
2023/08/27 01:55:47;;;;;;;1.98;1.30;;;22.10;60.60;;;;;;5029866;28;19943;-71
2023/08/27 01:58:13;;;;;;;;;;;22.10;60.70;;;;;;5031252;28;20032;-71
2023/08/27 02:00:39;;;;;;;1.55;1.08;;;22.10;60.50;;;;;;5012842;28;19967;-71
2023/08/27 02:03:06;;;;;;;;;;;22.00;61.00;;;;;;5030820;28;20025;-71
2023/08/27 02:05:32;;;;;;;3.47;1.95;;;22.00;60.30;;;;;;5031434;28;19917;-71
2023/08/27 02:07:58;;;;;;;;;;;22.00;60.70;;;;;;5032267;28;20041;-71
2023/08/27 02:10:24;;;;;;;3.88;1.92;;;22.00;60.80;;;;;;5030712;28;20271;-71
2023/08/27 02:12:50;;;;;;;1.58;1.02;;;21.90;61.20;;;;;;5031562;28;20044;-71
2023/08/27 02:15:16;;;;;;;;;;;21.90;61.40;;;;;;5030308;28;20521;-71
2023/08/27 02:17:42;;;;;;;3.83;2.20;;;21.90;61.20;;;;;;5031481;28;19913;-71
2023/08/27 02:20:09;;;;;;;;;;;22.00;61.40;;;;;;5029826;28;20045;-71
2023/08/27 02:22:35;;;;;;;1.50;1.25;;;21.90;61.00;;;;;;5031601;28;19920;-71
2023/08/27 02:25:01;;;;;;;3.33;2.33;;;21.90;60.80;;;;;;5013713;28;20368;-71
2023/08/27 02:27:27;;;;;;;;;;;22.00;61.60;;;;;;5031640;28;20510;-71
2023/08/27 02:29:53;;;;;;;0.73;0.60;;;22.00;61.10;;;;;;5033524;28;20022;-71
2023/08/27 02:32:19;;;;;;;;;;;21.90;61.40;;;;;;5035023;28;20506;-71
2023/08/27 02:34:45;;;;;;;4.47;1.55;;;21.90;61.40;;;;;;5034200;28;19928;-71
2023/08/27 02:37:11;;;;;;;;;;;21.80;61.50;;;;;;5034322;28;20053;-71
2023/08/27 02:39:37;;;;;;;0.77;0.65;;;21.80;61.50;;;;;;5035393;28;19921;-71
2023/08/27 02:42:03;;;;;;;;;;;21.80;61.50;;;;;;5034739;28;20049;-71
2023/08/27 02:44:29;;;;;;;2.20;1.48;;;21.80;60.80;;;;;;5033946;28;20274;-71
2023/08/27 02:46:55;;;;;;;;;;;21.80;61.80;;;;;;5033819;28;20029;-71
2023/08/27 02:49:21;;;;;;;1.42;1.13;;;21.80;61.80;;;;;;5035259;28;19927;-71
2023/08/27 02:51:47;;;;;;;;;;;21.80;62.00;;;;;;5034468;28;20088;-71
2023/08/27 02:54:13;;;;;;;2.53;0.60;;;21.80;62.00;;;;;;5035091;28;20445;-71
2023/08/27 02:56:39;;;;;;;;;;;21.80;62.20;;;;;;5034897;28;20037;-71
2023/08/27 02:59:05;;;;;;;2.22;1.45;;;21.70;62.30;;;;;;5033663;28;19913;-71
2023/08/27 03:01:31;;;;;;;;;;;21.70;62.40;;;;;;5016533;28;20049;-71
2023/08/27 03:03:57;;;;;;;1.77;1.08;;;21.70;62.10;;;;;;5033617;28;20395;-71
2023/08/27 03:06:23;;;;;;;;;;;21.70;62.30;;;;;;5034845;28;20053;-71
2023/08/27 03:08:49;;;;;;;4.07;1.85;;;21.60;62.10;;;;;;5034591;28;19913;-71
2023/08/27 03:11:15;;;;;;;1.75;1.17;;;21.60;62.30;;;;;;5034108;28;20506;-71
2023/08/27 03:13:41;;;;;;;;;;;21.40;62.80;;;;;;5034503;28;20037;-71
2023/08/27 03:16:07;;;;;;;2.13;1.45;;;21.40;62.60;;;;;;5034981;28;19978;-71
2023/08/27 03:18:33;;;;;;;;;;;21.40;62.70;;;;;;5035708;28;20036;-71
2023/08/27 03:20:59;;;;;;;3.50;1.75;;;21.30;62.80;;;;;;5032865;28;19972;-71
2023/08/27 03:23:25;;;;;;;;;;;21.30;62.90;;;;;;5035549;28;20075;-71
2023/08/27 03:25:51;;;;;;;1.85;1.42;;;21.30;62.70;;;;;;5016559;28;19921;-71
2023/08/27 03:28:18;;;;;;;3.22;1.95;;;21.30;62.30;;;;;;5034539;28;20029;-71
2023/08/27 03:30:44;;;;;;;2.38;1.30;;;21.40;62.90;;;;;;5031880;28;20042;-71
2023/08/27 03:33:10;;;;;;;;;;;21.40;63.90;;;;;;5034719;28;20068;-71
2023/08/27 03:35:36;;;;;;;1.40;1.17;;;21.40;62.70;;;;;;5033742;28;19925;-71
2023/08/27 03:38:02;;;;;;;3.10;2.10;;;21.30;62.10;;;;;;5032995;28;20486;-71
2023/08/27 03:40:29;;;;;;;2.17;1.05;;;21.20;62.00;;;;;;5032351;28;20046;-71
2023/08/27 03:42:55;;;;;;;2.28;1.65;;;21.20;62.90;;;;;;5033809;28;20075;-71
2023/08/27 03:45:21;;;;;;;;;;;21.20;63.00;;;;;;5034201;28;20463;-71
2023/08/27 03:47:47;;;;;;;3.25;1.65;;;21.20;62.90;;;;;;5033000;28;19917;-71
2023/08/27 03:50:13;;;;;;;1.60;0.98;;;21.20;63.20;;;;;;5031798;28;20041;-71
2023/08/27 03:52:39;;;;;;;;;;;21.20;63.40;;;;;;5034429;28;20033;-71
2023/08/27 03:55:06;;;;;;;1.30;0.85;;;21.20;62.90;;;;;;5033767;28;20024;-71
2023/08/27 03:57:32;;;;;;;1.58;1.08;;;21.10;63.10;;;;;;5032605;28;20099;-71
2023/08/27 03:59:57;;;;;;;;;;;21.10;63.20;;;;;;5034476;28;20045;-71
2023/08/27 04:02:23;;;;;;;1.83;1.00;;;21.10;63.00;;;;;;5031662;28;19917;-70
2023/08/27 04:04:50;;;;;;;3.28;1.75;;;21.10;63.20;;;;;;5032743;28;20080;-71
2023/08/27 04:07:16;;;;;;;1.25;0.93;;;21.10;63.50;;;;;;5033214;28;20033;-71
2023/08/27 04:09:42;;;;;;;;;;;21.10;63.70;;;;;;5032921;28;20041;-71
2023/08/27 04:12:08;;;;;;;1.83;1.30;;;21.10;63.50;;;;;;5032930;28;20114;-71
2023/08/27 04:14:34;;;;;;;;;;;21.10;63.60;;;;;;5016306;28;20038;-71
2023/08/27 04:17:00;;;;;;;4.22;1.98;;;21.10;63.50;;;;;;5032916;28;20027;-71
2023/08/27 04:19:26;;;;;;;2.10;1.38;;;21.10;63.60;;;;;;5032014;28;20041;-71
2023/08/27 04:21:52;;;;;;;;;;;21.10;63.80;;;;;;5032688;28;20041;-71
2023/08/27 04:24:18;;;;;;;2.45;1.35;;;21.10;63.80;;;;;;5033478;28;19932;-71
2023/08/27 04:26:44;;;;;;;2.17;1.17;;;21.10;63.90;;;;;;5032812;28;20029;-71
2023/08/27 04:29:10;;;;;;;2.83;1.40;;;21.10;63.50;;;;;;5033537;28;20041;-72
2023/08/27 04:31:36;;;;;;;;;;;21.10;63.50;;;;;;5014908;28;20274;-71
2023/08/27 04:34:02;;;;;;;2.50;1.20;;;21.10;63.30;;;;;;5033211;28;19913;-71
2023/08/27 04:36:28;;;;;;;;;;;21.10;63.70;;;;;;5032087;28;20081;-71
2023/08/27 04:38:54;;;;;;;1.08;0.90;;;21.10;63.90;;;;;;5031879;28;19920;-71
2023/08/27 04:41:20;;;;;;;1.95;1.27;;;21.10;63.60;;;;;;5030871;28;20052;-71
2023/08/27 04:43:46;;;;;;;;;;;21.10;63.60;;;;;;5033634;28;20036;-71
2023/08/27 04:46:12;;;;;;;1.20;0.90;;;21.00;63.70;;;;;;5031276;28;19928;-71
2023/08/27 04:48:39;;;;;;;;;;;21.00;63.80;;;;;;5033384;28;20060;-71
2023/08/27 04:51:05;;;;;;;;;;;20.90;64.00;;;;;;5030993;28;20313;-71
2023/08/27 04:53:31;;;;;;;1.52;1.02;;;20.90;63.90;;;;;;5032234;28;19962;-71
2023/08/27 04:55:57;;;;;;;;;;;21.00;63.80;;;;;;5031270;28;20041;-71
2023/08/27 04:58:23;;;;;;;1.60;0.63;;;21.00;63.60;;;;;;5032801;28;19939;-71
2023/08/27 05:00:53;;;;;;;1.23;1.10;;;21.10;63.90;;;;;;5031580;28;20462;-71
2023/08/27 05:03:19;;;;;;;2.70;1.42;;;21.10;64.00;;;;;;5014996;28;20041;-71
2023/08/27 05:05:45;;;;;;;2.42;1.27;;;21.20;64.50;;;;;;5032357;28;20439;-71
2023/08/27 05:08:11;;;;;;;;;;;21.20;64.40;;;;;;5032992;28;20520;-71
2023/08/27 05:10:37;;;;;;;1.95;0.85;;;21.20;64.20;;;;;;5030123;28;19921;-71
2023/08/27 05:13:03;;;;;;;;;;;21.20;64.30;;;;;;5032884;28;20101;-71
2023/08/27 05:15:29;;;;;;;1.60;1.08;;;21.30;64.10;;;;;;5032062;28;20274;-71
2023/08/27 05:17:55;;;;;;;;;;;21.30;65.30;;;;;;5031313;28;20076;-71
2023/08/27 05:20:21;;;;;;;1.92;1.25;;;21.40;64.20;;;;;;5029981;28;20003;-71
2023/08/27 05:22:47;;;;;;;3.65;1.75;;;21.50;64.30;;;;;;5032160;28;20033;-71
2023/08/27 05:25:13;;;;;;;3.60;1.75;;;21.60;64.50;;;;;;5030518;28;20042;-71
2023/08/27 05:27:44;;;;;;;;;;;21.60;64.60;;;;;;5031352;28;20048;-71
2023/08/27 05:30:13;;;;;;;2.17;1.40;;;21.70;64.40;;;;;;5030023;28;19917;-71
2023/08/27 05:32:40;;;;;;;4.60;2.03;;;21.70;64.50;;;;;;5030727;28;20037;-71
2023/08/27 05:35:06;;;;;;;2.53;1.30;;;21.70;64.70;;;;;;5038545;28;20065;-71
2023/08/27 05:37:32;;;;;;;2.35;1.45;;;21.80;64.20;;;;;;5040817;28;20052;-71
2023/08/27 05:39:58;;;;;;;;;;;21.80;65.00;;;;;;5041095;28;20042;-71
2023/08/27 05:42:25;;;;;;;;;;;21.90;64.80;;;;;;5050466;28;20325;-71
2023/08/27 05:44:51;;;;;;;2.22;1.15;;;22.00;64.20;;;;;;5050387;28;19920;-71
2023/08/27 05:47:17;;;;;;;;;;;22.00;64.80;;;;;;5050404;28;20106;-71
2023/08/27 05:49:44;;;;;;;4.30;2.30;;;22.10;64.60;;;;;;5050148;28;20354;-71
2023/08/27 05:52:10;;;;;;;4.30;1.83;;;22.20;64.40;;;;;;5050649;28;20037;-71
2023/08/27 05:54:36;;;;;;;;;;;22.30;65.20;;;;;;5042489;28;20040;-71
2023/08/27 05:57:04;;;;;;;4.07;2.33;;;22.30;64.90;;;;;;5040950;28;20325;-71
2023/08/27 05:59:30;;;;;;;1.63;1.15;;;22.40;65.00;;;;;;5028887;28;20500;-71
2023/08/27 06:01:58;;;;;;;2.00;1.50;;;22.40;64.80;;;;;;5030920;28;20486;-71
2023/08/27 06:04:24;;;;;;;5.53;3.08;;;22.50;65.40;;;;;;5029562;28;20034;-71
2023/08/27 06:06:51;;;;;;;4.03;1.75;;;22.50;65.00;;;;;;5029946;28;20486;-71
2023/08/27 06:09:17;;;;;;;4.03;2.28;;;22.70;65.40;;;;;;5030521;28;20041;-71
2023/08/27 06:11:43;;;;;;;3.88;2.88;;;22.80;65.40;;;;;;5030503;28;20030;-71
2023/08/27 06:14:09;;;;;;;;;;;22.80;65.40;;;;;;5047496;28;20107;-71
2023/08/27 06:16:35;;;;;;;4.15;2.08;;;22.90;65.10;;;;;;5029606;28;19913;-71
2023/08/27 06:19:01;;;;;;;2.20;1.33;;;22.90;65.30;;;;;;5032417;28;20037;-71
2023/08/27 06:21:27;;;;;;;3.13;1.40;;;23.00;65.20;;;;;;5030307;28;20481;-71
2023/08/27 06:23:53;;;;;;;;;;;23.10;64.80;;;;;;5030428;28;20037;-71
2023/08/27 06:26:19;;;;;;;6.78;2.85;;;23.20;64.40;;;;;;5040569;28;19917;-71
2023/08/27 06:28:46;;;;;;;;;;;23.30;64.50;;;;;;5051495;28;20032;-71
2023/08/27 06:31:13;;;;;;;3.15;1.80;;;23.40;64.20;;;;;;5050441;28;19932;-71
2023/08/27 06:33:39;;;;;;;4.15;1.00;;;23.50;63.90;;;;;;5047061;28;20037;-71
2023/08/27 06:36:05;;;;;;;;;;;23.60;63.70;;;;;;5043090;28;20049;-71
2023/08/27 06:38:32;;;;;;;3.25;2.20;;;23.70;63.40;;;;;;5049874;28;19924;-71
2023/08/27 06:40:59;;;;;;;2.85;1.83;;;23.80;62.80;;;;;;5050175;28;20125;-71
2023/08/27 06:43:25;;;;;;;3.28;1.50;;;23.90;62.90;;;;;;5049935;28;20037;-71
2023/08/27 06:45:52;;;;;;;2.80;1.42;;;24.00;62.50;;;;;;5049438;28;20041;-71
2023/08/27 06:48:18;;;;;;;2.75;1.65;;;24.10;62.50;;;;;;5051170;28;20513;-71
2023/08/27 06:50:44;;;;;;;4.20;1.98;;;24.10;62.20;;;;;;5045488;28;20340;-71
2023/08/27 06:53:10;;;;;;;;;;;24.20;62.30;;;;;;5028900;28;20041;-71
2023/08/27 06:55:36;;;;;;;4.45;1.85;;;24.30;62.10;;;;;;5029428;28;19917;-71
2023/08/27 06:58:02;;;;;;;;;;;24.40;61.70;;;;;;5031916;28;20038;-71
2023/08/27 07:00:28;;;;;;;4.80;1.90;;;24.50;61.40;;;;;;5030199;28;19931;-71
2023/08/27 07:02:54;;;;;;;2.50;1.63;;;24.70;61.00;;;;;;5031080;28;20426;-71
2023/08/27 07:05:20;;;;;;;;;;;24.80;60.50;;;;;;5031613;28;20037;-71
2023/08/27 07:07:47;;;;;;;3.17;1.85;;;25.00;60.60;;;;;;5029694;28;19913;-71
2023/08/27 07:10:13;;;;;;;1.33;0.90;;;25.10;59.90;;;;;;5045424;28;20033;-71
2023/08/27 07:12:39;;;;;;;2.88;1.70;;;25.30;59.60;;;;;;5030878;28;20033;-71
2023/08/27 07:15:07;;;;;;;2.50;1.20;;;25.70;59.30;;;;;;5029510;28;20128;-71
2023/08/27 07:17:34;;;;;;;2.90;1.85;;;26.00;59.20;;;;;;5033123;28;20025;-71
2023/08/27 07:20:01;;;;;;;3.83;2.00;;;26.40;57.60;;;;;;5049845;28;20124;-71
2023/08/27 07:22:27;;;;;;;2.47;1.92;;;26.90;57.40;;;;;;5032381;28;20124;-71
2023/08/27 07:24:54;;;;;;;1.70;1.10;;;27.40;57.40;;;;;;5034362;28;20041;-71
2023/08/27 07:27:20;;;;;;;3.53;2.30;;;27.90;55.80;;;;;;5032637;28;20034;-72
2023/08/27 07:29:46;;;;;;;2.35;1.65;;;28.30;55.10;;;;;;5045986;28;20400;-72
2023/08/27 07:32:12;;;;;;;3.65;1.92;;;28.70;53.60;;;;;;5034910;28;20037;-71
2023/08/27 07:34:38;;;;;;;1.70;1.45;;;29.20;53.20;;;;;;5033454;28;20382;-72
2023/08/27 07:37:04;;;;;;;2.85;1.73;;;29.60;51.70;;;;;;5044501;28;20045;-71
2023/08/27 07:39:30;;;;;;;1.63;1.13;;;30.10;50.80;;;;;;5033134;28;20068;-71
2023/08/27 07:41:56;;;;;;;2.55;1.73;;;30.70;48.70;;;;;;5031860;28;20053;-71
2023/08/27 07:44:22;;;;;;;2.42;1.58;;;31.10;47.90;;;;;;5032912;28;20376;-71
2023/08/27 07:46:48;;;;;;;2.42;1.45;;;31.70;46.60;;;;;;5033364;28;20506;-72
2023/08/27 07:49:14;;;;;;;3.75;1.45;;;32.30;45.00;;;;;;5027131;28;20486;-72
2023/08/27 07:51:40;;;;;;;3.60;2.30;;;32.70;43.10;;;;;;5051702;28;20033;-72
2023/08/27 07:54:06;;;;;;;2.60;2.03;;;33.20;42.40;;;;;;5053959;28;20040;-72
2023/08/27 07:56:32;;;;;;;2.40;1.52;;;33.70;40.80;;;;;;5053110;28;20037;-72
2023/08/27 07:58:58;;;;;;;2.25;1.92;;;34.30;40.00;;;;;;5054099;28;20079;-72
2023/08/27 08:01:25;;;;;;;3.22;2.25;;;34.70;38.30;;;;;;5052702;28;20037;-72
2023/08/27 08:03:51;;;;;;;4.60;2.47;;;35.20;37.70;;;;;;5052421;28;20060;-73
2023/08/27 08:06:17;;;;;;;5.50;2.78;;;35.70;36.40;;;;;;5052099;28;20033;-72
2023/08/27 08:08:43;;;;;;;2.80;1.95;;;36.20;35.20;;;;;;5052372;28;20043;-72
2023/08/27 08:11:09;;;;;;;2.15;1.23;;;36.70;33.60;;;;;;5052601;28;20057;-72
2023/08/27 08:13:36;;;;;;;6.00;1.75;;;37.30;32.20;;;;;;5053247;28;20029;-72
2023/08/27 08:16:03;;;;;;;1.77;1.63;;;37.70;30.00;;;;;;5051706;28;20043;-72
2023/08/27 08:18:30;;;;;;;2.35;1.20;;;38.20;29.80;;;;;;5035558;28;20514;-72
2023/08/27 08:20:58;;;;;;;11.20;3.42;;;38.70;28.90;;;;;;5052124;28;20047;-73
2023/08/27 08:23:25;;;;;;;3.30;2.40;;;39.00;28.00;;;;;;5051386;28;20057;-73
2023/08/27 08:25:52;;;;;;;3.58;1.95;;;39.40;27.00;;;;;;5039814;28;20037;-73
2023/08/27 08:28:18;;;;;;;2.65;1.02;;;39.80;26.30;;;;;;5051176;28;20050;-72
2023/08/27 08:30:48;;;;;;;3.28;2.22;;;40.20;25.40;;;;;;5050780;28;20033;-73
2023/08/27 08:33:16;;;;;;;2.13;1.65;;;40.70;24.20;;;;;;5053386;28;20037;-73
2023/08/27 08:35:43;;;;;;;1.27;1.17;;;40.90;24.10;;;;;;5051196;28;20425;-72
2023/08/27 08:38:09;;;;;;;1.80;1.42;;;41.30;23.90;;;;;;5051955;28;20045;-73
2023/08/27 08:40:58;;;;;;;3.00;1.80;;;41.60;23.30;;;;;;5036606;28;20068;-72
2023/08/27 08:43:44;;;;;;;2.45;1.30;;;42.00;23.40;;;;;;5031766;28;20033;-73
2023/08/27 08:46:13;;;;;;;3.90;2.65;;;42.40;22.60;;;;;;5031302;28;20080;-72
2023/08/27 08:48:44;;;;;;;4.10;2.92;;;42.90;22.40;;;;;;5032844;28;20220;-73
2023/08/27 08:51:12;;;;;;;5.47;3.10;;;43.40;22.40;;;;;;5030652;28;20038;-73
2023/08/27 08:54:04;;;;;;;3.88;1.30;;;43.80;22.50;;;;;;5031218;28;20038;-73
2023/08/27 08:56:38;;;;;;;3.35;2.60;;;44.20;22.00;;;;;;5041872;28;20045;-73
2023/08/27 08:59:05;;;;;;;3.55;2.35;;;44.80;21.30;;;;;;5031444;28;20030;-73
2023/08/27 09:01:32;;;;;;;4.10;2.03;;;45.10;20.40;;;;;;5030205;28;20116;-73
2023/08/27 09:04:01;;;;;;;2.58;2.08;;;45.40;19.90;;;;;;5015035;28;20458;-73
2023/08/27 09:06:27;;;;;;;2.10;1.70;;;45.60;19.60;;;;;;5030971;28;20030;-73
2023/08/27 09:08:55;;;;;;;3.08;2.45;;;45.80;19.10;;;;;;5031581;28;20030;-73
2023/08/27 09:11:21;;;;;;;2.70;2.00;;;46.00;19.00;;;;;;5030028;28;20088;-73
2023/08/27 09:13:48;;;;;;;2.33;1.63;;;46.40;18.70;;;;;;5031698;28;20521;-73
2023/08/27 09:16:14;;;;;;;2.53;2.05;;;46.90;18.00;;;;;;5031917;28;20041;-73
2023/08/27 09:18:40;;;;;;;2.97;2.13;;;47.20;18.40;;;;;;5032660;28;20029;-73
2023/08/27 09:21:06;;;;;;;1.55;1.33;;;47.50;18.00;;;;;;5031446;28;20037;-73
2023/08/27 09:23:37;;;;;;;2.30;1.95;;;47.60;18.00;;;;;;5030864;28;20443;-74
2023/08/27 09:26:04;;;;;;;2.35;1.70;;;47.90;17.70;;;;;;5030547;28;20045;-73
2023/08/27 09:28:33;;;;;;;2.58;1.85;;;48.20;17.60;;;;;;5028036;28;20112;-73
2023/08/27 09:31:01;;;;;;;3.00;2.15;;;48.60;16.70;;;;;;5048497;28;20086;-73
2023/08/27 09:33:46;;;;;;;11.88;2.00;;;48.90;15.30;;;;;;5051923;28;20032;-74
2023/08/27 09:36:13;;;;;;;1.40;1.30;;;49.10;16.20;;;;;;5050152;28;20405;-73
2023/08/27 09:38:43;;;;;;;3.65;2.67;;;49.70;15.80;;;;;;5051869;28;20520;-73
2023/08/27 09:41:30;;;;;;;1.80;1.65;;;50.10;15.70;;;;;;5049741;28;20083;-73
2023/08/27 09:43:56;;;;;;;3.00;2.42;;;50.50;15.10;;;;;;5050665;28;20060;-73
2023/08/27 09:46:22;;;;;;;3.10;2.58;;;50.60;14.20;;;;;;5051085;28;20033;-73
2023/08/27 09:49:08;;;;;;;2.00;1.80;;;50.90;13.60;;;;;;5051751;28;20044;-73
2023/08/27 09:51:56;;;;;;;3.05;2.63;;;51.40;13.70;;;;;;5050631;28;20162;-73
2023/08/27 09:54:29;;;;;;;3.42;2.70;;;51.70;12.70;;;;;;5050289;28;20036;-73
2023/08/27 09:56:59;;;;;;;2.85;2.38;;;51.90;13.10;;;;;;5051171;28;20445;-73
2023/08/27 09:59:26;;;;;;;2.53;2.15;;;52.10;13.30;;;;;;5050405;28;20037;-73
2023/08/27 10:01:53;;;;;;;4.25;2.67;;;52.60;12.70;;;;;;5050564;28;20063;-73
2023/08/27 10:04:59;;;;;;;2.05;1.85;;;52.70;12.20;;;;;;5050359;28;20068;-72
2023/08/27 10:07:25;;;;;;;2.92;2.63;;;53.00;12.00;;;;;;5051116;28;20025;-73
2023/08/27 10:09:53;;;;;;;3.80;2.60;;;53.10;11.10;;;;;;5051114;28;20052;-73
2023/08/27 10:12:21;;;;;;;2.88;2.58;;;53.30;11.50;;;;;;5049145;28;20112;-74
2023/08/27 10:14:48;;;;;;;4.22;3.15;;;53.70;11.40;;;;;;5051479;28;20045;-73
2023/08/27 10:17:15;;;;;;;2.70;2.30;;;53.80;11.70;;;;;;5049737;28;20098;-73
2023/08/27 10:19:42;;;;;;;3.47;3.17;;;54.00;11.80;;;;;;5051565;28;20044;-73
2023/08/27 10:22:08;;;;;;;4.40;3.17;;;54.40;11.40;;;;;;5050458;28;20575;-73
2023/08/27 10:24:35;;;;;;;4.38;3.47;;;54.80;11.40;;;;;;5051218;28;20060;-73
2023/08/27 10:29:49;;;;;;;3.78;3.42;;;55.20;11.30;;;;;;5030142;28;20107;-73
2023/08/27 10:32:16;;;;;;;3.65;3.35;;;55.40;11.30;;;;;;5028946;28;20033;-73
2023/08/27 10:34:42;;;;;;;4.43;3.22;;;55.70;11.20;;;;;;5031548;28;20029;-73
2023/08/27 10:37:10;;;;;;;3.80;3.38;;;55.90;10.70;;;;;;5029879;28;20054;-73
2023/08/27 10:39:37;;;;;;;4.38;3.97;;;55.70;10.80;;;;;;5030075;28;20382;-73
2023/08/27 10:42:04;;;;;;;4.53;4.13;;;55.90;11.00;;;;;;5028992;28;20124;-72
2023/08/27 10:44:32;;;;;;;4.30;3.92;;;56.30;11.20;;;;;;5046524;28;20038;-73
2023/08/27 10:47:17;;;;;;;4.72;4.30;;;56.70;11.10;;;;;;5030646;28;20378;-73
2023/08/27 10:49:49;;;;;;;4.47;4.07;;;56.60;10.80;;;;;;5031339;28;20116;-73
2023/08/27 10:52:20;;;;;;;4.53;4.13;;;56.80;10.20;;;;;;5051660;28;20120;-73
2023/08/27 10:54:47;;;;;;;4.88;4.45;;;56.90;9.70;;;;;;5053738;28;20044;-73
2023/08/27 10:57:36;;;;;;;3.97;3.63;;;57.10;10.50;;;;;;5053208;28;20021;-73
2023/08/27 11:00:20;;;;;;;4.90;4.50;;;57.50;10.20;;;;;;5055071;28;20056;-74
2023/08/27 11:03:24;;;;;;;5.38;4.97;;;57.90;9.70;;;;;;5053355;28;20041;-73
2023/08/27 11:06:46;;;;;;;5.45;4.95;;;58.20;9.90;;;;;;5053080;28;20485;-73
2023/08/27 11:09:23;;;;;;;5.47;5.05;;;58.30;10.00;;;;;;5033318;28;20438;-74
2023/08/27 11:12:37;;;;;;;5.95;5.45;;;58.60;9.00;;;;;;5032197;28;20124;-73
2023/08/27 11:15:28;;;;;;;5.78;5.28;;;58.40;9.60;;;;;;5033253;28;20110;-73
2023/08/27 11:17:54;;;;;;;6.65;6.05;;;58.40;9.80;;;;;;5033412;28;20403;-73
2023/08/27 11:20:38;;;;;;;6.68;6.18;;;58.90;9.40;;;;;;5034623;28;20037;-73
2023/08/27 11:23:09;;;;;;;6.05;5.55;;;59.30;9.70;;;;;;5052520;28;20071;-74
2023/08/27 11:25:37;;;;;;;7.03;6.53;;;59.40;8.80;;;;;;5051876;28;20098;-73
2023/08/27 11:28:04;;;;;;;6.15;5.65;;;59.30;9.50;;;;;;5052802;28;20029;-73
2023/08/27 11:30:31;;;;;;;6.40;5.90;;;59.50;9.40;;;;;;5053403;28;20569;-72
2023/08/27 11:32:57;;;;;;;8.88;8.18;;;59.90;9.20;;;;;;5053003;28;20033;-73
2023/08/27 11:35:26;;;;;;;7.32;6.78;;;60.20;9.10;;;;;;5053524;28;20110;-73
2023/08/27 11:37:53;;;;;;;7.53;7.03;;;60.30;9.50;;;;;;5054106;28;20037;-73
2023/08/27 11:40:20;;;;;;;8.55;7.95;;;60.60;9.30;;;;;;5053401;28;20037;-73
2023/08/27 11:43:05;;;;;;;8.88;8.27;;;60.40;9.10;;;;;;5052877;28;20124;-72
2023/08/27 11:45:34;;;;;;;7.45;6.90;;;60.30;9.20;;;;;;5052372;28;20170;-72
2023/08/27 11:48:19;;;;;;;7.30;6.80;;;60.20;9.30;;;;;;5052777;28;20078;-72
2023/08/27 11:50:46;;;;;;;9.02;8.38;;;60.30;9.50;;;;;;5052994;28;20037;-73
2023/08/27 11:53:13;;;;;;;8.63;8.02;;;60.60;9.50;;;;;;5052427;28;20075;-72
2023/08/27 11:55:39;;;;;;;9.02;8.43;;;60.60;9.30;;;;;;5035481;28;20120;-72
2023/08/27 11:58:06;;;;;;;9.20;8.60;;;60.40;9.40;;;;;;5035734;28;20059;-73
2023/08/27 12:00:32;;;;;;;8.77;8.18;;;60.50;9.10;;;;;;5051538;28;20056;-73
2023/08/27 12:02:59;;;;;;;8.45;7.85;;;60.80;9.00;;;;;;5052487;28;20044;-73
2023/08/27 12:05:27;;;;;;;7.90;7.30;;;61.20;9.20;;;;;;5051938;28;20057;-73
2023/08/27 12:07:53;;;;;;;10.07;9.48;;;61.10;9.20;;;;;;5052331;28;20064;-73
2023/08/27 12:10:20;;;;;;;10.60;9.90;;;61.00;8.90;;;;;;5052358;28;20453;-72
2023/08/27 12:12:46;;;;;;;10.90;10.20;;;61.30;9.20;;;;;;5052170;28;20482;-72
2023/08/27 12:15:13;;;;;;;10.23;9.50;;;61.40;9.00;;;;;;5051736;28;20041;-72
2023/08/27 12:17:39;;;;;;;11.63;10.82;;;61.60;9.50;;;;;;5053392;28;20033;-72
2023/08/27 12:20:07;;;;;;;9.88;9.27;;;61.70;9.30;;;;;;5051254;28;20047;-72
2023/08/27 12:22:52;;;;;;;9.82;9.23;;;61.80;8.80;;;;;;5035162;28;20498;-72
2023/08/27 12:25:18;;;;;;;10.05;9.43;;;61.90;8.90;;;;;;5052892;28;20040;-73
2023/08/27 12:27:46;;;;;;;11.52;10.88;;;61.70;8.90;;;;;;5051968;28;20401;-72
2023/08/27 12:30:13;;;;;;;10.40;9.80;;;62.10;8.70;;;;;;5051015;28;20068;-72
2023/08/27 12:32:39;;;;;;;11.93;11.23;;;61.90;8.80;;;;;;5051867;28;20432;-72
2023/08/27 12:35:07;;;;;;;10.95;10.32;;;61.80;9.10;;;;;;5022556;28;20030;-72
2023/08/27 12:37:34;;;;;;;11.65;10.95;;;62.00;8.30;;;;;;5035890;28;20461;-72
2023/08/27 12:40:00;;;;;;;11.95;11.25;;;62.20;9.10;;;;;;5035227;28;20516;-72
2023/08/27 12:42:26;;;;;;;11.70;11.00;;;62.50;8.50;;;;;;5034242;28;20041;-72
2023/08/27 12:44:53;;;;;;;11.05;10.45;;;62.40;8.80;;;;;;5053231;28;20037;-72
2023/08/27 12:47:19;;;;;;;10.43;9.82;;;62.30;9.00;;;;;;5052112;28;20032;-72
2023/08/27 12:49:45;;;;;;;12.30;11.60;;;62.20;8.80;;;;;;5052949;28;20385;-73
2023/08/27 12:52:11;;;;;;;11.52;10.82;;;62.50;8.50;;;;;;5048047;28;20053;-72
2023/08/27 12:54:37;;;;;;;11.10;10.40;;;62.50;8.90;;;;;;5038476;28;20067;-73
2023/08/27 12:57:03;;;;;;;12.45;11.75;;;62.80;8.50;;;;;;5052043;28;20425;-72
2023/08/27 12:59:29;;;;;;;13.07;12.38;;;62.90;8.40;;;;;;5052598;28;20037;-72
2023/08/27 13:01:55;;;;;;;13.15;12.45;;;63.10;9.00;;;;;;5050159;28;20037;-73
2023/08/27 13:04:25;;;;;;;14.52;13.73;;;63.40;9.00;;;;;;5050005;28;20467;-72
2023/08/27 13:06:52;;;;;;;14.38;13.57;;;63.50;8.60;;;;;;5043672;28;20031;-72
2023/08/27 13:09:18;;;;;;;14.20;13.40;;;63.20;8.40;;;;;;5051902;28;20041;-72